sensor_id;sensor_type;location;lat;lon;timestamp;P1;durP1;ratioP1;P2;durP2;ratioP2
23466;SDS011;59740;47.696;11.746;2024-01-10T00:02:20;45.53;;;21.65;;
23466;SDS011;59740;47.696;11.746;2024-01-10T00:04:49;52.13;;;23.75;;
23466;SDS011;59740;47.696;11.746;2024-01-10T00:07:18;46.42;;;23.38;;
23466;SDS011;59740;47.696;11.746;2024-01-10T00:09:46;52.53;;;24.50;;
23466;SDS011;59740;47.696;11.746;2024-01-10T00:12:15;52.22;;;25.20;;
23466;SDS011;59740;47.696;11.746;2024-01-10T00:14:43;46.65;;;24.73;;
23466;SDS011;59740;47.696;11.746;2024-01-10T00:17:13;49.00;;;24.05;;
23466;SDS011;59740;47.696;11.746;2024-01-10T00:19:41;47.80;;;22.88;;
23466;SDS011;59740;47.696;11.746;2024-01-10T00:22:10;43.85;;;22.05;;
23466;SDS011;59740;47.696;11.746;2024-01-10T00:24:38;49.83;;;23.48;;
23466;SDS011;59740;47.696;11.746;2024-01-10T00:27:07;51.78;;;24.55;;
23466;SDS011;59740;47.696;11.746;2024-01-10T00:29:36;43.67;;;22.98;;
23466;SDS011;59740;47.696;11.746;2024-01-10T00:32:05;49.45;;;24.02;;
23466;SDS011;59740;47.696;11.746;2024-01-10T00:34:36;43.80;;;21.52;;
23466;SDS011;59740;47.696;11.746;2024-01-10T00:37:04;43.08;;;20.88;;
23466;SDS011;59740;47.696;11.746;2024-01-10T00:39:33;38.15;;;19.42;;
23466;SDS011;59740;47.696;11.746;2024-01-10T00:42:01;37.50;;;18.15;;
23466;SDS011;59740;47.696;11.746;2024-01-10T00:44:30;41.78;;;20.27;;
23466;SDS011;59740;47.696;11.746;2024-01-10T00:46:58;39.95;;;19.33;;
23466;SDS011;59740;47.696;11.746;2024-01-10T00:49:27;41.22;;;19.67;;
23466;SDS011;59740;47.696;11.746;2024-01-10T00:51:56;37.25;;;19.30;;
23466;SDS011;59740;47.696;11.746;2024-01-10T00:54:25;36.58;;;18.23;;
23466;SDS011;59740;47.696;11.746;2024-01-10T00:56:53;38.28;;;18.75;;
23466;SDS011;59740;47.696;11.746;2024-01-10T00:59:22;38.78;;;18.58;;
23466;SDS011;59740;47.696;11.746;2024-01-10T01:01:50;39.88;;;19.50;;
23466;SDS011;59740;47.696;11.746;2024-01-10T01:04:19;37.58;;;18.65;;
23466;SDS011;59740;47.696;11.746;2024-01-10T01:06:48;38.67;;;18.92;;
23466;SDS011;59740;47.696;11.746;2024-01-10T01:09:18;35.83;;;18.15;;
23466;SDS011;59740;47.696;11.746;2024-01-10T01:11:46;35.78;;;18.35;;
23466;SDS011;59740;47.696;11.746;2024-01-10T01:14:15;34.33;;;18.45;;
23466;SDS011;59740;47.696;11.746;2024-01-10T01:16:43;37.92;;;18.42;;
23466;SDS011;59740;47.696;11.746;2024-01-10T01:19:12;39.38;;;19.13;;
23466;SDS011;59740;47.696;11.746;2024-01-10T01:21:40;34.53;;;18.63;;
23466;SDS011;59740;47.696;11.746;2024-01-10T01:24:09;35.67;;;18.10;;
23466;SDS011;59740;47.696;11.746;2024-01-10T01:26:39;36.58;;;18.33;;
23466;SDS011;59740;47.696;11.746;2024-01-10T01:29:08;39.20;;;18.77;;
23466;SDS011;59740;47.696;11.746;2024-01-10T01:31:36;36.15;;;19.20;;
23466;SDS011;59740;47.696;11.746;2024-01-10T01:34:05;40.78;;;19.35;;
23466;SDS011;59740;47.696;11.746;2024-01-10T01:36:34;41.78;;;19.00;;
23466;SDS011;59740;47.696;11.746;2024-01-10T01:39:02;42.45;;;19.52;;
23466;SDS011;59740;47.696;11.746;2024-01-10T01:41:31;38.95;;;18.38;;
23466;SDS011;59740;47.696;11.746;2024-01-10T01:44:01;39.95;;;18.92;;
23466;SDS011;59740;47.696;11.746;2024-01-10T01:46:29;39.08;;;18.77;;
23466;SDS011;59740;47.696;11.746;2024-01-10T01:48:59;41.08;;;20.00;;
23466;SDS011;59740;47.696;11.746;2024-01-10T01:51:28;38.55;;;19.08;;
23466;SDS011;59740;47.696;11.746;2024-01-10T01:53:59;40.95;;;20.25;;
23466;SDS011;59740;47.696;11.746;2024-01-10T01:56:28;41.53;;;19.45;;
23466;SDS011;59740;47.696;11.746;2024-01-10T01:58:56;45.25;;;21.17;;
23466;SDS011;59740;47.696;11.746;2024-01-10T02:01:27;49.90;;;22.60;;
23466;SDS011;59740;47.696;11.746;2024-01-10T02:03:55;46.53;;;21.67;;
23466;SDS011;59740;47.696;11.746;2024-01-10T02:06:24;47.97;;;22.17;;
23466;SDS011;59740;47.696;11.746;2024-01-10T02:08:53;51.13;;;22.88;;
23466;SDS011;59740;47.696;11.746;2024-01-10T02:11:21;46.25;;;21.88;;
23466;SDS011;59740;47.696;11.746;2024-01-10T02:13:51;54.05;;;24.60;;
23466;SDS011;59740;47.696;11.746;2024-01-10T02:16:21;52.30;;;24.67;;
23466;SDS011;59740;47.696;11.746;2024-01-10T02:18:52;52.45;;;23.70;;
23466;SDS011;59740;47.696;11.746;2024-01-10T02:21:21;48.63;;;23.48;;
23466;SDS011;59740;47.696;11.746;2024-01-10T02:23:49;50.60;;;23.90;;
23466;SDS011;59740;47.696;11.746;2024-01-10T02:26:19;44.83;;;20.38;;
23466;SDS011;59740;47.696;11.746;2024-01-10T02:28:48;40.60;;;19.27;;
23466;SDS011;59740;47.696;11.746;2024-01-10T02:31:17;37.40;;;18.45;;
23466;SDS011;59740;47.696;11.746;2024-01-10T02:33:46;39.65;;;18.75;;
23466;SDS011;59740;47.696;11.746;2024-01-10T02:36:14;33.97;;;17.95;;
23466;SDS011;59740;47.696;11.746;2024-01-10T02:38:43;34.35;;;17.42;;
23466;SDS011;59740;47.696;11.746;2024-01-10T02:41:11;34.10;;;17.92;;
23466;SDS011;59740;47.696;11.746;2024-01-10T02:43:41;36.15;;;17.55;;
23466;SDS011;59740;47.696;11.746;2024-01-10T02:46:10;35.85;;;17.33;;
23466;SDS011;59740;47.696;11.746;2024-01-10T02:48:38;38.10;;;18.48;;
23466;SDS011;59740;47.696;11.746;2024-01-10T02:51:07;40.03;;;19.50;;
23466;SDS011;59740;47.696;11.746;2024-01-10T02:53:35;33.22;;;17.92;;
23466;SDS011;59740;47.696;11.746;2024-01-10T02:56:04;35.60;;;17.90;;
23466;SDS011;59740;47.696;11.746;2024-01-10T02:58:33;37.28;;;17.83;;
23466;SDS011;59740;47.696;11.746;2024-01-10T03:01:03;39.38;;;18.20;;
23466;SDS011;59740;47.696;11.746;2024-01-10T03:03:32;36.30;;;18.25;;
23466;SDS011;59740;47.696;11.746;2024-01-10T03:06:00;36.33;;;17.65;;
23466;SDS011;59740;47.696;11.746;2024-01-10T03:08:29;33.97;;;17.08;;
23466;SDS011;59740;47.696;11.746;2024-01-10T03:10:57;35.70;;;17.70;;
23466;SDS011;59740;47.696;11.746;2024-01-10T03:13:26;33.17;;;17.50;;
23466;SDS011;59740;47.696;11.746;2024-01-10T03:15:54;36.70;;;17.30;;
23466;SDS011;59740;47.696;11.746;2024-01-10T03:18:24;34.40;;;18.15;;
23466;SDS011;59740;47.696;11.746;2024-01-10T03:20:53;35.65;;;17.40;;
23466;SDS011;59740;47.696;11.746;2024-01-10T03:23:22;39.63;;;18.45;;
23466;SDS011;59740;47.696;11.746;2024-01-10T03:25:51;36.80;;;18.15;;
23466;SDS011;59740;47.696;11.746;2024-01-10T03:28:19;35.88;;;17.95;;
23466;SDS011;59740;47.696;11.746;2024-01-10T03:30:48;39.65;;;18.55;;
23466;SDS011;59740;47.696;11.746;2024-01-10T03:33:16;34.25;;;17.65;;
23466;SDS011;59740;47.696;11.746;2024-01-10T03:35:46;37.15;;;17.58;;
23466;SDS011;59740;47.696;11.746;2024-01-10T03:38:15;32.63;;;15.82;;
23466;SDS011;59740;47.696;11.746;2024-01-10T03:40:43;32.38;;;16.17;;
23466;SDS011;59740;47.696;11.746;2024-01-10T03:43:12;33.08;;;16.33;;
23466;SDS011;59740;47.696;11.746;2024-01-10T03:45:43;31.88;;;16.25;;
23466;SDS011;59740;47.696;11.746;2024-01-10T03:48:12;31.13;;;15.98;;
23466;SDS011;59740;47.696;11.746;2024-01-10T03:50:40;33.80;;;15.95;;
23466;SDS011;59740;47.696;11.746;2024-01-10T03:53:10;31.95;;;16.15;;
23466;SDS011;59740;47.696;11.746;2024-01-10T03:55:38;31.95;;;15.77;;
23466;SDS011;59740;47.696;11.746;2024-01-10T03:58:07;31.38;;;15.18;;
23466;SDS011;59740;47.696;11.746;2024-01-10T04:00:36;31.20;;;15.50;;
23466;SDS011;59740;47.696;11.746;2024-01-10T04:03:05;36.67;;;15.73;;
23466;SDS011;59740;47.696;11.746;2024-01-10T04:05:34;27.83;;;14.30;;
23466;SDS011;59740;47.696;11.746;2024-01-10T04:08:03;31.88;;;16.48;;
23466;SDS011;59740;47.696;11.746;2024-01-10T04:10:34;37.67;;;16.50;;
23466;SDS011;59740;47.696;11.746;2024-01-10T04:13:02;30.85;;;15.98;;
23466;SDS011;59740;47.696;11.746;2024-01-10T04:15:31;33.55;;;16.25;;
23466;SDS011;59740;47.696;11.746;2024-01-10T04:18:01;35.63;;;16.88;;
23466;SDS011;59740;47.696;11.746;2024-01-10T04:20:30;32.15;;;16.05;;
23466;SDS011;59740;47.696;11.746;2024-01-10T04:22:58;34.60;;;16.08;;
23466;SDS011;59740;47.696;11.746;2024-01-10T04:25:27;30.23;;;15.63;;
23466;SDS011;59740;47.696;11.746;2024-01-10T04:27:57;34.40;;;15.70;;
23466;SDS011;59740;47.696;11.746;2024-01-10T04:30:25;29.65;;;15.02;;
23466;SDS011;59740;47.696;11.746;2024-01-10T04:32:54;30.27;;;14.88;;
23466;SDS011;59740;47.696;11.746;2024-01-10T04:35:22;31.38;;;14.75;;
23466;SDS011;59740;47.696;11.746;2024-01-10T04:37:51;30.95;;;15.40;;
23466;SDS011;59740;47.696;11.746;2024-01-10T04:40:19;28.63;;;13.95;;
23466;SDS011;59740;47.696;11.746;2024-01-10T04:42:48;30.00;;;14.82;;
23466;SDS011;59740;47.696;11.746;2024-01-10T04:45:18;29.77;;;15.18;;
23466;SDS011;59740;47.696;11.746;2024-01-10T04:47:46;31.83;;;15.05;;
23466;SDS011;59740;47.696;11.746;2024-01-10T04:50:16;33.33;;;15.23;;
23466;SDS011;59740;47.696;11.746;2024-01-10T04:52:45;32.72;;;15.30;;
23466;SDS011;59740;47.696;11.746;2024-01-10T04:55:14;33.55;;;15.80;;
23466;SDS011;59740;47.696;11.746;2024-01-10T04:57:43;28.63;;;14.57;;
23466;SDS011;59740;47.696;11.746;2024-01-10T05:00:11;29.08;;;15.05;;
23466;SDS011;59740;47.696;11.746;2024-01-10T05:02:41;30.25;;;16.27;;
23466;SDS011;59740;47.696;11.746;2024-01-10T05:05:10;28.20;;;14.63;;
23466;SDS011;59740;47.696;11.746;2024-01-10T05:07:38;28.60;;;14.60;;
23466;SDS011;59740;47.696;11.746;2024-01-10T05:10:07;28.58;;;14.63;;
23466;SDS011;59740;47.696;11.746;2024-01-10T05:12:36;29.42;;;14.45;;
23466;SDS011;59740;47.696;11.746;2024-01-10T05:15:05;31.90;;;15.95;;
23466;SDS011;59740;47.696;11.746;2024-01-10T05:17:35;30.42;;;15.85;;
23466;SDS011;59740;47.696;11.746;2024-01-10T05:20:06;29.50;;;14.43;;
23466;SDS011;59740;47.696;11.746;2024-01-10T05:22:35;27.90;;;14.63;;
23466;SDS011;59740;47.696;11.746;2024-01-10T05:25:04;32.25;;;15.82;;
23466;SDS011;59740;47.696;11.746;2024-01-10T05:27:33;32.33;;;14.73;;
23466;SDS011;59740;47.696;11.746;2024-01-10T05:30:02;33.80;;;15.93;;
23466;SDS011;59740;47.696;11.746;2024-01-10T05:32:31;31.88;;;15.45;;
23466;SDS011;59740;47.696;11.746;2024-01-10T05:34:59;33.35;;;15.90;;
23466;SDS011;59740;47.696;11.746;2024-01-10T05:37:29;34.45;;;15.45;;
23466;SDS011;59740;47.696;11.746;2024-01-10T05:39:58;32.13;;;15.65;;
23466;SDS011;59740;47.696;11.746;2024-01-10T05:42:27;29.42;;;15.35;;
23466;SDS011;59740;47.696;11.746;2024-01-10T05:44:56;35.70;;;15.05;;
23466;SDS011;59740;47.696;11.746;2024-01-10T05:47:24;35.88;;;17.55;;
23466;SDS011;59740;47.696;11.746;2024-01-10T05:49:53;33.28;;;16.73;;
23466;SDS011;59740;47.696;11.746;2024-01-10T05:52:22;31.38;;;16.05;;
23466;SDS011;59740;47.696;11.746;2024-01-10T05:54:52;35.15;;;15.73;;
23466;SDS011;59740;47.696;11.746;2024-01-10T05:57:21;33.30;;;15.48;;
23466;SDS011;59740;47.696;11.746;2024-01-10T05:59:49;35.08;;;17.05;;
23466;SDS011;59740;47.696;11.746;2024-01-10T06:02:19;34.17;;;17.08;;
23466;SDS011;59740;47.696;11.746;2024-01-10T06:04:48;31.60;;;16.25;;
23466;SDS011;59740;47.696;11.746;2024-01-10T06:07:16;32.33;;;15.95;;
23466;SDS011;59740;47.696;11.746;2024-01-10T06:09:45;30.25;;;15.02;;
23466;SDS011;59740;47.696;11.746;2024-01-10T06:12:15;29.55;;;14.93;;
23466;SDS011;59740;47.696;11.746;2024-01-10T06:14:44;31.17;;;14.45;;
23466;SDS011;59740;47.696;11.746;2024-01-10T06:17:13;27.50;;;15.05;;
23466;SDS011;59740;47.696;11.746;2024-01-10T06:19:42;30.70;;;14.65;;
23466;SDS011;59740;47.696;11.746;2024-01-10T06:22:11;31.80;;;15.25;;
23466;SDS011;59740;47.696;11.746;2024-01-10T06:24:39;28.42;;;14.13;;
23466;SDS011;59740;47.696;11.746;2024-01-10T06:27:08;28.30;;;14.25;;
23466;SDS011;59740;47.696;11.746;2024-01-10T06:29:38;30.13;;;15.05;;
23466;SDS011;59740;47.696;11.746;2024-01-10T06:32:07;26.25;;;13.88;;
23466;SDS011;59740;47.696;11.746;2024-01-10T06:34:36;27.17;;;13.88;;
23466;SDS011;59740;47.696;11.746;2024-01-10T06:37:04;29.80;;;13.63;;
23466;SDS011;59740;47.696;11.746;2024-01-10T06:39:34;27.67;;;13.88;;
23466;SDS011;59740;47.696;11.746;2024-01-10T06:42:02;28.13;;;13.50;;
23466;SDS011;59740;47.696;11.746;2024-01-10T06:44:33;25.92;;;13.43;;
23466;SDS011;59740;47.696;11.746;2024-01-10T06:47:14;23.95;;;12.68;;
23466;SDS011;59740;47.696;11.746;2024-01-10T06:49:43;29.27;;;12.57;;
23466;SDS011;59740;47.696;11.746;2024-01-10T06:52:12;27.15;;;12.80;;
23466;SDS011;59740;47.696;11.746;2024-01-10T06:54:40;24.73;;;12.90;;
23466;SDS011;59740;47.696;11.746;2024-01-10T06:57:09;27.52;;;14.05;;
23466;SDS011;59740;47.696;11.746;2024-01-10T06:59:37;33.40;;;16.23;;
23466;SDS011;59740;47.696;11.746;2024-01-10T07:02:06;30.42;;;14.93;;
23466;SDS011;59740;47.696;11.746;2024-01-10T07:04:37;37.95;;;18.80;;
23466;SDS011;59740;47.696;11.746;2024-01-10T07:07:06;51.80;;;24.23;;
23466;SDS011;59740;47.696;11.746;2024-01-10T07:09:35;34.20;;;15.77;;
23466;SDS011;59740;47.696;11.746;2024-01-10T07:12:06;30.38;;;14.48;;
23466;SDS011;59740;47.696;11.746;2024-01-10T07:14:35;28.08;;;12.55;;
23466;SDS011;59740;47.696;11.746;2024-01-10T07:17:03;23.83;;;11.52;;
23466;SDS011;59740;47.696;11.746;2024-01-10T07:19:32;23.52;;;10.90;;
23466;SDS011;59740;47.696;11.746;2024-01-10T07:22:02;25.15;;;11.25;;
23466;SDS011;59740;47.696;11.746;2024-01-10T07:24:31;21.38;;;10.30;;
23466;SDS011;59740;47.696;11.746;2024-01-10T07:27:01;20.52;;;10.45;;
23466;SDS011;59740;47.696;11.746;2024-01-10T07:29:29;21.15;;;9.55;;
23466;SDS011;59740;47.696;11.746;2024-01-10T07:31:58;18.67;;;9.43;;
23466;SDS011;59740;47.696;11.746;2024-01-10T07:34:27;21.05;;;9.45;;
23466;SDS011;59740;47.696;11.746;2024-01-10T07:36:55;18.65;;;9.50;;
23466;SDS011;59740;47.696;11.746;2024-01-10T07:39:25;17.27;;;8.55;;
23466;SDS011;59740;47.696;11.746;2024-01-10T07:41:54;15.50;;;7.85;;
23466;SDS011;59740;47.696;11.746;2024-01-10T07:44:23;15.02;;;8.18;;
23466;SDS011;59740;47.696;11.746;2024-01-10T07:46:53;16.08;;;8.27;;
23466;SDS011;59740;47.696;11.746;2024-01-10T07:49:22;17.05;;;7.72;;
23466;SDS011;59740;47.696;11.746;2024-01-10T07:51:51;15.88;;;8.10;;
23466;SDS011;59740;47.696;11.746;2024-01-10T07:54:20;14.10;;;7.97;;
23466;SDS011;59740;47.696;11.746;2024-01-10T07:56:50;15.60;;;7.93;;
23466;SDS011;59740;47.696;11.746;2024-01-10T07:59:20;16.17;;;7.20;;
23466;SDS011;59740;47.696;11.746;2024-01-10T08:01:54;11.98;;;6.45;;
23466;SDS011;59740;47.696;11.746;2024-01-10T08:04:25;13.63;;;7.63;;
23466;SDS011;59740;47.696;11.746;2024-01-10T08:06:54;13.57;;;6.68;;
23466;SDS011;59740;47.696;11.746;2024-01-10T08:09:23;13.90;;;7.40;;
23466;SDS011;59740;47.696;11.746;2024-01-10T08:11:53;14.23;;;6.30;;
23466;SDS011;59740;47.696;11.746;2024-01-10T08:14:22;11.80;;;6.10;;
23466;SDS011;59740;47.696;11.746;2024-01-10T08:16:51;11.60;;;5.75;;
23466;SDS011;59740;47.696;11.746;2024-01-10T08:19:20;10.73;;;5.32;;
23466;SDS011;59740;47.696;11.746;2024-01-10T08:21:49;9.68;;;5.15;;
23466;SDS011;59740;47.696;11.746;2024-01-10T08:24:17;12.18;;;6.10;;
23466;SDS011;59740;47.696;11.746;2024-01-10T08:26:46;9.45;;;5.80;;
23466;SDS011;59740;47.696;11.746;2024-01-10T08:29:17;11.30;;;5.95;;
23466;SDS011;59740;47.696;11.746;2024-01-10T08:31:47;11.57;;;6.32;;
23466;SDS011;59740;47.696;11.746;2024-01-10T08:34:15;15.98;;;8.15;;
23466;SDS011;59740;47.696;11.746;2024-01-10T08:36:45;12.70;;;7.78;;
23466;SDS011;59740;47.696;11.746;2024-01-10T08:39:17;15.98;;;8.52;;
23466;SDS011;59740;47.696;11.746;2024-01-10T08:41:45;14.70;;;8.18;;
23466;SDS011;59740;47.696;11.746;2024-01-10T08:44:14;14.85;;;8.07;;
23466;SDS011;59740;47.696;11.746;2024-01-10T08:46:44;12.75;;;8.00;;
23466;SDS011;59740;47.696;11.746;2024-01-10T08:49:13;12.88;;;7.32;;
23466;SDS011;59740;47.696;11.746;2024-01-10T08:51:42;11.38;;;6.88;;
23466;SDS011;59740;47.696;11.746;2024-01-10T08:54:13;10.13;;;5.72;;
23466;SDS011;59740;47.696;11.746;2024-01-10T08:56:43;8.40;;;5.40;;
23466;SDS011;59740;47.696;11.746;2024-01-10T08:59:12;11.00;;;5.35;;
23466;SDS011;59740;47.696;11.746;2024-01-10T09:01:41;7.68;;;4.47;;
23466;SDS011;59740;47.696;11.746;2024-01-10T09:04:11;9.30;;;4.68;;
23466;SDS011;59740;47.696;11.746;2024-01-10T09:06:40;7.60;;;4.00;;
23466;SDS011;59740;47.696;11.746;2024-01-10T09:09:09;6.53;;;4.13;;
23466;SDS011;59740;47.696;11.746;2024-01-10T09:11:40;7.55;;;4.00;;
23466;SDS011;59740;47.696;11.746;2024-01-10T09:14:11;7.43;;;4.45;;
23466;SDS011;59740;47.696;11.746;2024-01-10T09:16:40;8.43;;;4.75;;
23466;SDS011;59740;47.696;11.746;2024-01-10T09:19:08;8.02;;;4.57;;
23466;SDS011;59740;47.696;11.746;2024-01-10T09:21:41;8.00;;;4.60;;
23466;SDS011;59740;47.696;11.746;2024-01-10T09:24:09;9.70;;;4.93;;
23466;SDS011;59740;47.696;11.746;2024-01-10T09:26:54;8.65;;;5.28;;
23466;SDS011;59740;47.696;11.746;2024-01-10T09:29:23;13.40;;;6.70;;
23466;SDS011;59740;47.696;11.746;2024-01-10T09:31:52;12.50;;;7.53;;
23466;SDS011;59740;47.696;11.746;2024-01-10T09:34:23;13.60;;;7.55;;
23466;SDS011;59740;47.696;11.746;2024-01-10T09:36:51;12.88;;;7.72;;
23466;SDS011;59740;47.696;11.746;2024-01-10T09:39:20;11.90;;;6.15;;
23466;SDS011;59740;47.696;11.746;2024-01-10T09:41:49;10.18;;;5.75;;
23466;SDS011;59740;47.696;11.746;2024-01-10T09:44:19;10.65;;;6.20;;
23466;SDS011;59740;47.696;11.746;2024-01-10T09:46:50;10.85;;;6.13;;
23466;SDS011;59740;47.696;11.746;2024-01-10T09:49:20;8.88;;;4.75;;
23466;SDS011;59740;47.696;11.746;2024-01-10T09:51:53;9.77;;;4.80;;
23466;SDS011;59740;47.696;11.746;2024-01-10T09:54:26;7.45;;;4.22;;
23466;SDS011;59740;47.696;11.746;2024-01-10T09:57:04;8.80;;;4.65;;
23466;SDS011;59740;47.696;11.746;2024-01-10T09:59:33;7.88;;;4.20;;
23466;SDS011;59740;47.696;11.746;2024-01-10T10:02:02;8.77;;;4.55;;
23466;SDS011;59740;47.696;11.746;2024-01-10T10:04:33;11.32;;;4.57;;
23466;SDS011;59740;47.696;11.746;2024-01-10T10:07:02;9.30;;;4.38;;
23466;SDS011;59740;47.696;11.746;2024-01-10T10:09:31;7.68;;;4.38;;
23466;SDS011;59740;47.696;11.746;2024-01-10T10:11:59;7.80;;;4.70;;
23466;SDS011;59740;47.696;11.746;2024-01-10T10:14:28;5.95;;;3.85;;
23466;SDS011;59740;47.696;11.746;2024-01-10T10:17:12;5.65;;;3.70;;
23466;SDS011;59740;47.696;11.746;2024-01-10T10:22:12;7.80;;;3.88;;
23466;SDS011;59740;47.696;11.746;2024-01-10T10:24:41;6.25;;;3.92;;
23466;SDS011;59740;47.696;11.746;2024-01-10T10:27:11;7.30;;;4.03;;
23466;SDS011;59740;47.696;11.746;2024-01-10T10:29:40;7.05;;;4.03;;
23466;SDS011;59740;47.696;11.746;2024-01-10T10:32:14;9.57;;;5.97;;
23466;SDS011;59740;47.696;11.746;2024-01-10T10:34:46;8.07;;;5.07;;
23466;SDS011;59740;47.696;11.746;2024-01-10T10:37:15;8.98;;;5.30;;
23466;SDS011;59740;47.696;11.746;2024-01-10T10:39:43;7.70;;;4.38;;
23466;SDS011;59740;47.696;11.746;2024-01-10T10:42:13;7.65;;;4.50;;
23466;SDS011;59740;47.696;11.746;2024-01-10T10:44:45;8.40;;;4.57;;
23466;SDS011;59740;47.696;11.746;2024-01-10T10:47:15;6.75;;;3.97;;
23466;SDS011;59740;47.696;11.746;2024-01-10T10:49:50;7.90;;;4.28;;
23466;SDS011;59740;47.696;11.746;2024-01-10T10:52:22;7.45;;;4.43;;
23466;SDS011;59740;47.696;11.746;2024-01-10T10:54:52;7.55;;;4.20;;
23466;SDS011;59740;47.696;11.746;2024-01-10T10:57:24;6.35;;;3.67;;
23466;SDS011;59740;47.696;11.746;2024-01-10T10:59:54;6.05;;;3.60;;
23466;SDS011;59740;47.696;11.746;2024-01-10T11:02:24;8.60;;;6.00;;
23466;SDS011;59740;47.696;11.746;2024-01-10T11:04:59;6.25;;;4.50;;
23466;SDS011;59740;47.696;11.746;2024-01-10T11:07:28;7.15;;;4.45;;
23466;SDS011;59740;47.696;11.746;2024-01-10T11:09:57;7.30;;;4.47;;
23466;SDS011;59740;47.696;11.746;2024-01-10T11:12:34;7.72;;;4.70;;
23466;SDS011;59740;47.696;11.746;2024-01-10T11:15:21;7.60;;;4.72;;
23466;SDS011;59740;47.696;11.746;2024-01-10T11:18:15;6.75;;;4.60;;
23466;SDS011;59740;47.696;11.746;2024-01-10T11:20:59;7.43;;;4.40;;
23466;SDS011;59740;47.696;11.746;2024-01-10T11:23:41;7.22;;;4.78;;
23466;SDS011;59740;47.696;11.746;2024-01-10T11:26:13;8.80;;;5.38;;
23466;SDS011;59740;47.696;11.746;2024-01-10T11:28:43;9.40;;;5.63;;
23466;SDS011;59740;47.696;11.746;2024-01-10T11:31:12;7.22;;;4.50;;
23466;SDS011;59740;47.696;11.746;2024-01-10T11:33:42;7.22;;;4.18;;
23466;SDS011;59740;47.696;11.746;2024-01-10T11:36:14;6.60;;;4.10;;
23466;SDS011;59740;47.696;11.746;2024-01-10T11:38:48;6.63;;;3.90;;
23466;SDS011;59740;47.696;11.746;2024-01-10T11:41:22;6.32;;;4.05;;
23466;SDS011;59740;47.696;11.746;2024-01-10T11:46:55;6.30;;;4.07;;
23466;SDS011;59740;47.696;11.746;2024-01-10T11:49:25;4.95;;;3.75;;
23466;SDS011;59740;47.696;11.746;2024-01-10T11:51:56;5.65;;;4.00;;
23466;SDS011;59740;47.696;11.746;2024-01-10T11:54:35;5.20;;;3.70;;
23466;SDS011;59740;47.696;11.746;2024-01-10T11:57:07;4.35;;;3.28;;
23466;SDS011;59740;47.696;11.746;2024-01-10T11:59:37;5.10;;;3.60;;
23466;SDS011;59740;47.696;11.746;2024-01-10T12:02:07;4.90;;;3.30;;
23466;SDS011;59740;47.696;11.746;2024-01-10T12:04:36;5.05;;;3.50;;
23466;SDS011;59740;47.696;11.746;2024-01-10T12:07:16;5.15;;;3.20;;
23466;SDS011;59740;47.696;11.746;2024-01-10T12:09:46;4.10;;;2.95;;
23466;SDS011;59740;47.696;11.746;2024-01-10T12:12:15;4.95;;;2.97;;
23466;SDS011;59740;47.696;11.746;2024-01-10T12:14:44;4.38;;;2.63;;
23466;SDS011;59740;47.696;11.746;2024-01-10T12:17:13;4.15;;;2.72;;
23466;SDS011;59740;47.696;11.746;2024-01-10T12:19:42;4.18;;;2.72;;
23466;SDS011;59740;47.696;11.746;2024-01-10T12:22:13;4.35;;;2.92;;
23466;SDS011;59740;47.696;11.746;2024-01-10T12:24:43;6.05;;;3.85;;
23466;SDS011;59740;47.696;11.746;2024-01-10T12:27:13;6.05;;;3.70;;
23466;SDS011;59740;47.696;11.746;2024-01-10T12:29:47;5.15;;;3.90;;
23466;SDS011;59740;47.696;11.746;2024-01-10T12:32:17;5.18;;;3.35;;
23466;SDS011;59740;47.696;11.746;2024-01-10T12:34:46;5.10;;;2.72;;
23466;SDS011;59740;47.696;11.746;2024-01-10T12:37:16;3.63;;;2.63;;
23466;SDS011;59740;47.696;11.746;2024-01-10T12:39:47;3.80;;;2.65;;
23466;SDS011;59740;47.696;11.746;2024-01-10T12:42:16;4.32;;;2.88;;
23466;SDS011;59740;47.696;11.746;2024-01-10T12:44:47;5.30;;;3.17;;
23466;SDS011;59740;47.696;11.746;2024-01-10T12:47:18;4.30;;;2.95;;
23466;SDS011;59740;47.696;11.746;2024-01-10T12:49:48;4.00;;;2.60;;
23466;SDS011;59740;47.696;11.746;2024-01-10T12:52:18;4.05;;;2.78;;
23466;SDS011;59740;47.696;11.746;2024-01-10T12:54:50;4.15;;;2.55;;
23466;SDS011;59740;47.696;11.746;2024-01-10T12:57:19;4.07;;;2.72;;
23466;SDS011;59740;47.696;11.746;2024-01-10T12:59:48;3.53;;;2.28;;
23466;SDS011;59740;47.696;11.746;2024-01-10T13:02:16;4.15;;;2.22;;
23466;SDS011;59740;47.696;11.746;2024-01-10T13:04:46;3.65;;;2.50;;
23466;SDS011;59740;47.696;11.746;2024-01-10T13:07:15;4.90;;;2.50;;
23466;SDS011;59740;47.696;11.746;2024-01-10T13:09:44;4.28;;;2.38;;
23466;SDS011;59740;47.696;11.746;2024-01-10T13:12:13;4.18;;;2.78;;
23466;SDS011;59740;47.696;11.746;2024-01-10T13:14:41;4.30;;;2.78;;
23466;SDS011;59740;47.696;11.746;2024-01-10T13:17:10;4.95;;;3.67;;
23466;SDS011;59740;47.696;11.746;2024-01-10T13:19:38;11.82;;;7.72;;
23466;SDS011;59740;47.696;11.746;2024-01-10T13:22:07;20.95;;;12.68;;
23466;SDS011;59740;47.696;11.746;2024-01-10T13:24:36;28.65;;;15.23;;
23466;SDS011;59740;47.696;11.746;2024-01-10T13:27:06;25.60;;;15.20;;
23466;SDS011;59740;47.696;11.746;2024-01-10T13:29:37;23.40;;;15.52;;
23466;SDS011;59740;47.696;11.746;2024-01-10T13:32:07;27.58;;;16.63;;
23466;SDS011;59740;47.696;11.746;2024-01-10T13:34:38;26.40;;;16.42;;
23466;SDS011;59740;47.696;11.746;2024-01-10T13:37:09;26.73;;;16.45;;
23466;SDS011;59740;47.696;11.746;2024-01-10T13:39:40;27.63;;;16.70;;
23466;SDS011;59740;47.696;11.746;2024-01-10T13:42:13;28.73;;;17.17;;
23466;SDS011;59740;47.696;11.746;2024-01-10T13:44:42;28.17;;;16.45;;
23466;SDS011;59740;47.696;11.746;2024-01-10T13:47:11;26.65;;;16.77;;
23466;SDS011;59740;47.696;11.746;2024-01-10T13:49:41;27.50;;;17.10;;
23466;SDS011;59740;47.696;11.746;2024-01-10T13:52:10;28.83;;;17.95;;
23466;SDS011;59740;47.696;11.746;2024-01-10T13:54:39;29.85;;;17.52;;
23466;SDS011;59740;47.696;11.746;2024-01-10T13:57:09;28.67;;;17.55;;
23466;SDS011;59740;47.696;11.746;2024-01-10T13:59:39;31.23;;;18.02;;
23466;SDS011;59740;47.696;11.746;2024-01-10T14:02:08;33.08;;;19.80;;
23466;SDS011;59740;47.696;11.746;2024-01-10T14:04:37;31.35;;;18.85;;
23466;SDS011;59740;47.696;11.746;2024-01-10T14:07:06;30.33;;;18.65;;
23466;SDS011;59740;47.696;11.746;2024-01-10T14:09:34;33.00;;;19.83;;
23466;SDS011;59740;47.696;11.746;2024-01-10T14:12:04;31.65;;;18.80;;
23466;SDS011;59740;47.696;11.746;2024-01-10T14:14:33;30.55;;;19.42;;
23466;SDS011;59740;47.696;11.746;2024-01-10T14:17:03;30.67;;;18.58;;
23466;SDS011;59740;47.696;11.746;2024-01-10T14:19:32;29.63;;;18.08;;
23466;SDS011;59740;47.696;11.746;2024-01-10T14:22:04;28.55;;;17.58;;
23466;SDS011;59740;47.696;11.746;2024-01-10T14:24:47;28.25;;;17.00;;
23466;SDS011;59740;47.696;11.746;2024-01-10T14:27:15;30.55;;;16.52;;
23466;SDS011;59740;47.696;11.746;2024-01-10T14:29:44;27.70;;;16.52;;
23466;SDS011;59740;47.696;11.746;2024-01-10T14:32:17;24.88;;;15.02;;
23466;SDS011;59740;47.696;11.746;2024-01-10T14:34:46;23.45;;;13.95;;
23466;SDS011;59740;47.696;11.746;2024-01-10T14:37:15;20.52;;;13.05;;